createdAt,value
2019-03-16T00:00:44.462Z,97024.73
2019-03-16T00:01:57.510Z,97026.20
2019-03-16T00:03:02.276Z,97019.14
2019-03-16T00:04:10.446Z,97014.84
2019-03-16T00:05:18.833Z,97014.80
2019-03-16T00:06:26.703Z,97009.03
2019-03-16T00:07:34.509Z,96996.56
2019-03-16T00:08:42.510Z,97011.44
2019-03-16T00:09:50.659Z,96988.91
2019-03-16T00:10:59.111Z,96975.50
2019-03-16T00:12:07.125Z,96969.55
2019-03-16T00:13:16.303Z,96968.56
2019-03-16T00:14:24.456Z,96986.08
2019-03-16T00:15:32.408Z,96987.39
2019-03-16T00:16:40.724Z,96976.00
2019-03-16T00:17:48.746Z,96980.57
2019-03-16T00:18:56.568Z,97020.70
2019-03-16T00:20:06.375Z,97011.75
2019-03-16T00:21:14.520Z,96990.29
2019-03-16T00:22:22.675Z,96971.45
2019-03-16T00:23:30.704Z,96983.59
2019-03-16T00:24:38.536Z,96989.20
2019-03-16T00:25:46.348Z,96955.88
2019-03-16T00:26:54.469Z,96915.50
2019-03-16T00:28:02.466Z,96903.36
2019-03-16T00:29:10.723Z,96874.61
2019-03-16T00:30:18.769Z,96917.86
2019-03-16T00:31:27.327Z,96946.68
2019-03-16T00:32:35.675Z,96951.81
2019-03-16T00:33:44.056Z,96938.91
2019-03-16T00:34:52.052Z,96947.59
2019-03-16T00:36:00.177Z,96956.31
2019-03-16T00:37:08.196Z,96963.67
2019-03-16T00:38:16.277Z,96932.91
2019-03-16T00:39:24.257Z,96961.48
2019-03-16T00:40:32.464Z,96956.81
2019-03-16T00:41:40.552Z,96949.38
2019-03-16T00:42:48.527Z,96947.69
2019-03-16T00:43:56.495Z,96949.38
2019-03-16T00:45:05.770Z,96959.80
2019-03-16T00:46:13.697Z,96952.55
2019-03-16T00:47:21.887Z,96943.60
2019-03-16T00:48:29.984Z,96930.02
2019-03-16T00:49:37.854Z,96924.89
2019-03-16T00:50:45.778Z,96928.36
2019-03-16T00:51:53.731Z,96925.23
2019-03-16T00:53:01.922Z,96914.33
2019-03-16T00:54:10.120Z,96915.86
2019-03-16T00:55:18.020Z,96931.34
2019-03-16T00:56:26.027Z,96919.42
2019-03-16T00:57:34.004Z,96930.17
2019-03-16T00:58:41.998Z,96935.80
2019-03-16T00:59:49.943Z,96944.22
2019-03-16T01:01:01.839Z,96937.76
2019-03-16T01:02:09.785Z,96935.45
2019-03-16T01:03:17.892Z,96931.80
2019-03-16T01:04:26.067Z,96936.10
2019-03-16T01:05:34.323Z,96942.03
2019-03-16T01:06:42.576Z,96947.65
2019-03-16T01:07:50.768Z,96934.29
2019-03-16T01:08:58.964Z,96941.05
2019-03-16T01:10:09.771Z,96946.60
2019-03-16T01:11:17.770Z,96960.41
2019-03-16T01:12:26.021Z,96951.45
2019-03-16T01:13:34.008Z,96957.57
2019-03-16T01:14:42.012Z,96958.55
2019-03-16T01:15:49.992Z,96956.74
2019-03-16T01:16:58.102Z,96969.05
2019-03-16T01:18:06.369Z,96983.95
2019-03-16T01:19:14.589Z,96977.47
2019-03-16T01:20:22.591Z,96979.62
2019-03-16T01:21:30.896Z,96981.43
2019-03-16T01:22:39.197Z,96982.27
2019-03-16T01:23:47.240Z,96986.22
2019-03-16T01:24:55.650Z,96984.07
2019-03-16T01:26:03.753Z,96982.03
2019-03-16T01:27:11.800Z,96988.02
2019-03-16T01:28:19.912Z,96991.08
2019-03-16T01:29:28.027Z,96979.01
2019-03-16T01:30:36.328Z,96984.97
2019-03-16T01:31:44.716Z,96986.48
2019-03-16T01:32:52.587Z,96981.16
2019-03-16T01:34:00.772Z,96996.67
2019-03-16T01:35:09.078Z,97006.86
2019-03-16T01:36:17.031Z,97000.75
2019-03-16T01:37:25.067Z,97006.94
2019-03-16T01:38:33.279Z,97002.63
2019-03-16T01:39:41.325Z,97015.65
2019-03-16T01:40:49.266Z,97015.42
2019-03-16T01:41:57.129Z,97011.23
2019-03-16T01:43:05.156Z,97021.05
2019-03-16T01:44:12.987Z,97025.50
2019-03-16T01:45:21.262Z,97007.72
2019-03-16T01:46:30.754Z,97012.89
2019-03-16T01:47:38.890Z,97009.77
2019-03-16T01:48:47.054Z,97005.87
2019-03-16T01:49:55.253Z,97002.40
2019-03-16T01:51:03.672Z,97005.53
2019-03-16T01:52:11.447Z,97010.25
2019-03-16T01:53:19.918Z,97008.74
2019-03-16T01:54:28.073Z,97001.12
2019-03-16T01:55:36.356Z,97005.31
2019-03-16T01:56:44.200Z,97003.53
2019-03-16T01:57:52.372Z,97024.52
2019-03-16T01:59:00.545Z,97008.17
2019-03-16T02:00:18.372Z,97010.97
2019-03-16T02:01:26.315Z,97033.91
2019-03-16T02:02:34.459Z,97011.08
2019-03-16T02:03:42.299Z,97020.42
2019-03-16T02:04:50.512Z,97025.03
2019-03-16T02:05:58.646Z,97023.98
2019-03-16T02:07:06.749Z,97026.37
2019-03-16T02:08:14.862Z,97036.10
2019-03-16T02:09:23.055Z,97042.78
2019-03-16T02:10:31.036Z,97039.16
2019-03-16T02:11:39.255Z,97047.84
2019-03-16T02:12:47.192Z,97034.21
2019-03-16T02:13:55.319Z,97034.21
2019-03-16T02:15:03.183Z,97040.28
2019-03-16T02:16:13.023Z,97048.41
2019-03-16T02:17:21.055Z,97038.86
2019-03-16T02:18:29.039Z,97049.19
2019-03-16T02:19:42.830Z,97049.98
2019-03-16T02:20:46.720Z,97043.53
2019-03-16T02:21:54.622Z,97039.16
2019-03-16T02:23:02.765Z,97043.76
2019-03-16T02:24:10.814Z,97048.41
2019-03-16T02:25:19.033Z,97042.55
2019-03-16T02:26:27.025Z,97043.05
2019-03-16T02:27:35.029Z,97026.86
2019-03-16T02:28:42.935Z,97045.42
2019-03-16T02:29:50.839Z,97049.66
2019-03-16T02:30:58.729Z,97052.17
2019-03-16T02:32:06.727Z,97049.99
2019-03-16T02:33:14.805Z,97044.93
2019-03-16T02:34:22.791Z,97037.72
2019-03-16T02:35:31.639Z,97039.42
2019-03-16T02:36:44.111Z,97053.77
2019-03-16T02:37:52.017Z,97048.33
2019-03-16T02:39:00.108Z,97049.66
2019-03-16T02:40:11.232Z,97047.02
2019-03-16T02:41:19.310Z,97045.20
2019-03-16T02:42:27.284Z,97043.20
2019-03-16T02:43:35.345Z,97035.42
2019-03-16T02:44:43.525Z,97037.72
2019-03-16T02:45:51.472Z,97038.06
2019-03-16T02:46:59.391Z,97032.78
2019-03-16T02:48:07.343Z,97038.10
2019-03-16T02:49:15.387Z,97036.52
2019-03-16T02:50:23.455Z,97038.66
2019-03-16T02:51:32.391Z,97036.17
2019-03-16T02:52:40.160Z,97041.45
2019-03-16T02:53:48.113Z,97025.88
2019-03-16T02:54:56.016Z,97046.97
2019-03-16T02:56:04.030Z,97035.46
2019-03-16T02:57:12.044Z,97034.85
2019-03-16T02:58:19.937Z,97047.08
2019-03-16T02:59:27.999Z,97046.10
2019-03-16T03:00:35.893Z,97052.03
2019-03-16T03:01:43.823Z,97037.00
2019-03-16T03:02:51.783Z,97031.57
2019-03-16T03:03:59.985Z,97045.13
2019-03-16T03:05:10.735Z,97040.73
2019-03-16T03:06:18.915Z,97047.61
2019-03-16T03:07:27.170Z,97035.37
2019-03-16T03:08:34.969Z,97101.85
2019-03-16T03:09:42.998Z,97074.90
2019-03-16T03:10:51.028Z,97058.17
2019-03-16T03:11:59.379Z,97056.78
2019-03-16T03:13:07.614Z,97063.73
2019-03-16T03:14:15.427Z,97057.61
2019-03-16T03:15:23.491Z,97064.11
2019-03-16T03:16:31.605Z,97065.28
2019-03-16T03:17:39.708Z,97068.14
2019-03-16T03:18:49.932Z,97051.49
2019-03-16T03:19:57.406Z,97061.91
2019-03-16T03:21:05.326Z,97062.89
2019-03-16T03:22:13.605Z,97079.58
2019-03-16T03:23:21.585Z,97084.34
2019-03-16T03:24:29.645Z,97089.06
2019-03-16T03:25:37.703Z,97084.00
2019-03-16T03:26:45.553Z,97105.25
2019-03-16T03:27:53.727Z,97103.25
2019-03-16T03:29:01.801Z,97108.00
2019-03-16T03:30:14.594Z,97110.16
2019-03-16T03:31:22.712Z,97121.70
2019-03-16T03:32:30.952Z,97121.48
2019-03-16T03:33:59.319Z,97122.31
2019-03-16T03:34:49.222Z,97120.98
2019-03-16T03:35:57.170Z,97131.22
2019-03-16T03:37:05.479Z,97125.09
2019-03-16T03:38:14.457Z,97118.98
2019-03-16T03:39:22.881Z,97130.53
2019-03-16T03:40:31.045Z,97132.34
2019-03-16T03:41:39.507Z,97148.39
2019-03-16T03:42:47.593Z,97141.14
2019-03-16T03:43:55.585Z,97143.79
2019-03-16T03:45:03.789Z,97119.17
2019-03-16T03:46:12.575Z,97142.01
2019-03-16T03:47:20.441Z,97141.64
2019-03-16T03:48:28.230Z,97139.70
2019-03-16T03:49:36.487Z,97144.84
2019-03-16T03:50:44.645Z,97150.47
2019-03-16T03:51:52.671Z,97152.28
2019-03-16T03:53:01.066Z,97148.47
2019-03-16T03:54:08.954Z,97149.79
2019-03-16T03:55:17.386Z,97151.45
2019-03-16T03:56:25.746Z,97151.98
2019-03-16T03:57:33.861Z,97153.80
2019-03-16T03:58:41.918Z,97157.76
2019-03-16T03:59:50.159Z,97162.70
2019-03-16T04:00:58.587Z,97162.21
2019-03-16T04:02:06.658Z,97161.88
2019-03-16T04:03:14.917Z,97150.96
2019-03-16T04:04:22.889Z,97161.38
2019-03-16T04:05:31.009Z,97165.69
2019-03-16T04:06:41.089Z,97165.98
2019-03-16T04:07:49.379Z,97160.75
2019-03-16T04:08:57.391Z,97160.89
2019-03-16T04:10:09.020Z,97162.02
2019-03-16T04:11:17.019Z,97168.14
2019-03-16T04:12:24.968Z,97180.32
2019-03-16T04:13:33.087Z,97165.30
2019-03-16T04:14:41.146Z,97161.04
2019-03-16T04:15:49.123Z,97165.30
2019-03-16T04:16:57.017Z,97184.28
2019-03-16T04:18:05.035Z,97174.32
2019-03-16T04:19:13.025Z,97164.24
2019-03-16T04:20:21.505Z,97176.27
2019-03-16T04:21:29.631Z,97190.81
2019-03-16T04:22:38.817Z,97196.44
2019-03-16T04:23:46.722Z,97168.50
2019-03-16T04:24:54.984Z,97202.35
2019-03-16T04:26:03.072Z,97204.16
2019-03-16T04:27:16.249Z,97205.75
2019-03-16T04:28:20.559Z,97152.64
2019-03-16T04:29:28.587Z,97189.00
2019-03-16T04:30:36.692Z,97199.86
2019-03-16T04:31:44.858Z,97212.23
2019-03-16T04:32:52.961Z,97199.77
2019-03-16T04:34:00.980Z,97202.56
2019-03-16T04:35:09.362Z,97217.09
2019-03-16T04:36:18.020Z,97211.13
2019-03-16T04:37:25.854Z,97206.67
2019-03-16T04:38:34.207Z,97206.52
2019-03-16T04:39:42.033Z,97208.53
2019-03-16T04:40:49.901Z,97203.94
2019-03-16T04:41:57.867Z,97217.14
2019-03-16T04:43:05.875Z,97199.44
2019-03-16T04:44:14.048Z,97213.88
2019-03-16T04:45:22.047Z,97209.14
2019-03-16T04:46:31.492Z,97214.34
2019-03-16T04:47:39.542Z,97207.05
2019-03-16T04:48:47.544Z,97219.36
2019-03-16T04:49:55.723Z,97213.25
2019-03-16T04:51:04.084Z,97211.70
2019-03-16T04:52:12.084Z,97219.81
2019-03-16T04:53:20.322Z,97223.52
2019-03-16T04:54:28.620Z,97217.17
2019-03-16T04:55:36.780Z,97228.52
2019-03-16T04:56:44.707Z,97232.27
2019-03-16T04:57:53.016Z,97226.07
2019-03-16T04:59:01.153Z,97220.59
2019-03-16T05:00:14.789Z,97226.90
2019-03-16T05:01:23.159Z,97237.26
2019-03-16T05:02:31.307Z,97238.30
2019-03-16T05:03:39.271Z,97246.80
2019-03-16T05:04:47.427Z,97242.00
2019-03-16T05:05:55.599Z,97255.55
2019-03-16T05:07:03.640Z,97265.62
2019-03-16T05:08:12.075Z,97256.77
2019-03-16T05:09:20.490Z,97259.01
2019-03-16T05:10:28.708Z,97262.34
2019-03-16T05:11:36.938Z,97264.28
2019-03-16T05:12:44.778Z,97273.88
2019-03-16T05:13:52.647Z,97274.70
2019-03-16T05:15:00.810Z,97271.58
2019-03-16T05:16:08.665Z,97272.89
2019-03-16T05:17:16.599Z,97270.99
2019-03-16T05:18:24.697Z,97274.84
2019-03-16T05:19:32.939Z,97273.03
2019-03-16T05:20:41.129Z,97276.57
2019-03-16T05:21:49.132Z,97278.52
2019-03-16T05:22:57.208Z,97269.38
2019-03-16T05:24:05.324Z,97284.59
2019-03-16T05:25:13.795Z,97286.65
2019-03-16T05:26:22.018Z,97280.47
2019-03-16T05:27:30.382Z,97292.76
2019-03-16T05:28:38.538Z,97287.58
2019-03-16T05:29:46.716Z,97294.87
2019-03-16T05:30:54.931Z,97281.66
2019-03-16T05:32:03.073Z,97295.94
2019-03-16T05:33:11.335Z,97300.92
2019-03-16T05:34:19.417Z,97292.51
2019-03-16T05:35:27.827Z,97302.09
2019-03-16T05:36:36.001Z,97299.11
2019-03-16T05:37:44.146Z,97296.81
2019-03-16T05:38:52.083Z,97293.00
2019-03-16T05:40:00.725Z,97296.81
2019-03-16T05:41:08.937Z,97299.84
2019-03-16T05:42:17.036Z,97303.41
2019-03-16T05:43:25.054Z,97313.62
2019-03-16T05:44:33.319Z,97292.21
2019-03-16T05:45:41.778Z,97294.84
2019-03-16T05:46:49.814Z,97312.15
2019-03-16T05:47:57.748Z,97301.10
2019-03-16T05:49:06.202Z,97304.41
2019-03-16T05:50:15.470Z,97313.41
2019-03-16T05:51:24.033Z,97337.06
2019-03-16T05:52:32.011Z,97332.27
2019-03-16T05:53:40.249Z,97321.47
2019-03-16T05:54:48.423Z,97314.18
2019-03-16T05:55:56.449Z,97335.47
2019-03-16T05:57:04.387Z,97340.39
2019-03-16T05:58:12.829Z,97342.06
2019-03-16T05:59:20.911Z,97353.31
2019-03-16T06:00:29.486Z,97321.64
2019-03-16T06:01:37.454Z,97334.22
2019-03-16T06:02:45.734Z,97349.63
2019-03-16T06:03:54.012Z,97343.69
2019-03-16T06:05:10.488Z,97358.20
2019-03-16T06:06:11.714Z,97352.25
2019-03-16T06:07:19.934Z,97359.00
2019-03-16T06:08:28.153Z,97353.97
2019-03-16T06:09:36.276Z,97358.78
2019-03-16T06:10:44.337Z,97363.47
2019-03-16T06:11:52.463Z,97358.68
2019-03-16T06:13:00.656Z,97362.39
2019-03-16T06:14:08.855Z,97373.67
2019-03-16T06:15:16.969Z,97374.98
2019-03-16T06:16:25.697Z,97365.38
2019-03-16T06:17:33.697Z,97369.73
2019-03-16T06:18:41.798Z,97375.58
2019-03-16T06:19:49.958Z,97380.36
2019-03-16T06:20:57.938Z,97379.53
2019-03-16T06:22:06.048Z,97371.27
2019-03-16T06:23:14.128Z,97372.30
2019-03-16T06:24:22.299Z,97376.39
2019-03-16T06:25:30.356Z,97366.11
2019-03-16T06:26:38.711Z,97388.12
2019-03-16T06:27:47.356Z,97370.77
2019-03-16T06:28:55.369Z,97383.73
2019-03-16T06:30:03.538Z,97398.65
2019-03-16T06:31:11.710Z,97391.36
2019-03-16T06:32:20.140Z,97399.34
2019-03-16T06:33:28.381Z,97395.88
2019-03-16T06:34:36.642Z,97392.53
2019-03-16T06:35:44.982Z,97418.30
2019-03-16T06:36:53.342Z,97392.86
2019-03-16T06:38:01.578Z,97402.81
2019-03-16T06:39:10.086Z,97407.72
2019-03-16T06:40:18.160Z,97405.56
2019-03-16T06:41:26.426Z,97434.91
2019-03-16T06:42:34.710Z,97408.42
2019-03-16T06:43:43.097Z,97406.75
2019-03-16T06:44:51.519Z,97433.86
2019-03-16T06:45:59.789Z,97416.55
2019-03-16T06:47:08.058Z,97412.11
2019-03-16T06:48:16.568Z,97421.38
2019-03-16T06:49:25.455Z,97431.66
2019-03-16T06:50:33.679Z,97444.12
2019-03-16T06:51:42.047Z,97448.03
2019-03-16T06:52:50.250Z,97447.77
2019-03-16T06:53:58.748Z,97451.23
2019-03-16T06:55:08.332Z,97448.73
2019-03-16T06:56:16.376Z,97443.05
2019-03-16T06:57:25.035Z,97453.72
2019-03-16T06:58:33.223Z,97443.45
2019-03-16T06:59:41.476Z,97449.44
2019-03-16T07:00:49.663Z,97465.27
2019-03-16T07:01:57.797Z,97453.61
2019-03-16T07:03:06.465Z,97464.97
2019-03-16T07:04:15.331Z,97464.86
2019-03-16T07:05:37.063Z,97466.83
2019-03-16T07:06:33.461Z,97469.63
2019-03-16T07:07:41.872Z,97473.48
2019-03-16T07:08:49.866Z,97461.41
2019-03-16T07:09:58.542Z,97477.34
2019-03-16T07:11:06.911Z,97474.06
2019-03-16T07:12:15.183Z,97475.94
2019-03-16T07:13:23.282Z,97471.67
2019-03-16T07:14:31.654Z,97480.88
2019-03-16T07:15:39.801Z,97485.26
2019-03-16T07:17:01.078Z,97480.75
2019-03-16T07:17:57.945Z,97486.34
2019-03-16T07:19:06.048Z,97491.28
2019-03-16T07:20:17.255Z,97492.80
2019-03-16T07:21:25.525Z,97501.97
2019-03-16T07:22:34.018Z,97494.25
2019-03-16T07:23:42.125Z,97494.59
2019-03-16T07:24:51.699Z,97502.08
2019-03-16T07:26:13.761Z,97507.55
2019-03-16T07:27:10.516Z,97505.03
2019-03-16T07:28:18.486Z,97508.72
2019-03-16T07:29:26.521Z,97501.28
2019-03-16T07:30:37.170Z,97514.80
2019-03-16T07:31:49.147Z,97509.64
2019-03-16T07:32:57.435Z,97510.06
2019-03-16T07:34:05.693Z,97514.97
2019-03-16T07:35:14.340Z,97532.97
2019-03-16T07:36:23.021Z,97515.53
2019-03-16T07:37:31.865Z,97529.67
2019-03-16T07:38:40.301Z,97536.49
2019-03-16T07:39:48.993Z,97531.39
2019-03-16T07:40:57.184Z,97523.84
2019-03-16T07:42:05.352Z,97526.11
2019-03-16T07:43:14.396Z,97536.92
2019-03-16T07:44:22.400Z,97531.64
2019-03-16T07:45:30.756Z,97540.08
2019-03-16T07:46:38.747Z,97548.45
2019-03-16T07:47:47.064Z,97550.27
2019-03-16T07:48:55.414Z,97553.15
2019-03-16T07:50:04.630Z,97549.52
2019-03-16T07:51:12.935Z,97554.80
2019-03-16T07:52:21.119Z,97553.91
2019-03-16T07:53:29.267Z,97555.95
2019-03-16T07:54:37.387Z,97536.88
2019-03-16T07:55:45.657Z,97568.30
2019-03-16T07:56:54.737Z,97580.19
2019-03-16T07:58:05.716Z,97558.19
2019-03-16T07:59:13.903Z,97556.88
2019-03-16T08:00:22.020Z,97567.19
2019-03-16T08:01:31.483Z,97560.34
2019-03-16T08:02:40.518Z,97569.78
2019-03-16T08:03:48.678Z,97537.81
2019-03-16T08:04:57.003Z,97578.89
2019-03-16T08:06:05.404Z,97562.58
2019-03-16T08:07:13.970Z,97584.81
2019-03-16T08:08:22.610Z,97599.10
2019-03-16T08:09:30.863Z,97578.91
2019-03-16T08:10:38.983Z,97590.23
2019-03-16T08:11:47.155Z,97594.98
2019-03-16T08:12:54.963Z,97595.84
2019-03-16T08:14:03.125Z,97598.19
2019-03-16T08:15:12.891Z,97595.60
2019-03-16T08:16:21.115Z,97608.59
2019-03-16T08:17:29.249Z,97597.16
2019-03-16T08:18:37.608Z,97600.67
2019-03-16T08:19:45.983Z,97602.84
2019-03-16T08:20:54.350Z,97600.48
2019-03-16T08:22:02.436Z,97593.12
2019-03-16T08:23:10.609Z,97602.15
2019-03-16T08:24:18.462Z,97603.73
2019-03-16T08:25:34.790Z,97603.62
2019-03-16T08:26:36.973Z,97594.58
2019-03-16T08:27:54.030Z,97607.06
2019-03-16T08:28:54.899Z,97605.92
2019-03-16T08:30:03.068Z,97598.97
2019-03-16T08:31:11.205Z,97603.53
2019-03-16T08:32:21.140Z,97608.86
2019-03-16T08:33:29.219Z,97608.45
2019-03-16T08:34:38.018Z,97631.22
2019-03-16T08:35:46.293Z,97618.98
2019-03-16T08:36:54.373Z,97623.61
2019-03-16T08:38:02.406Z,97637.52
2019-03-16T08:39:10.562Z,97625.13
2019-03-16T08:40:18.622Z,97624.42
2019-03-16T08:41:26.740Z,97633.23
2019-03-16T08:42:35.522Z,97646.77
2019-03-16T08:43:43.911Z,97656.91
2019-03-16T08:44:52.567Z,97648.77
2019-03-16T08:46:00.822Z,97634.85
2019-03-16T08:47:08.937Z,97640.14
2019-03-16T08:48:22.611Z,97629.54
2019-03-16T08:49:26.827Z,97656.39
2019-03-16T08:50:35.097Z,97637.31
2019-03-16T08:51:43.054Z,97653.98
2019-03-16T08:52:53.622Z,97616.76
2019-03-16T08:54:02.199Z,97670.34
2019-03-16T08:55:11.314Z,97650.52
2019-03-16T08:56:19.371Z,97662.06
2019-03-16T08:57:27.444Z,97656.19
2019-03-16T08:58:35.354Z,97662.06
2019-03-16T08:59:45.991Z,97662.77
2019-03-16T09:01:00.611Z,97668.13
2019-03-16T09:02:08.705Z,97662.20
2019-03-16T09:03:16.656Z,97675.20
2019-03-16T09:04:24.705Z,97666.22
2019-03-16T09:05:32.552Z,97659.34
2019-03-16T09:06:41.527Z,97666.65
2019-03-16T09:07:50.625Z,97665.00
2019-03-16T09:08:58.630Z,97672.58
2019-03-16T09:10:09.580Z,97669.67
2019-03-16T09:11:17.850Z,97679.48
2019-03-16T09:12:26.090Z,97688.95
2019-03-16T09:13:33.996Z,97692.71
2019-03-16T09:14:42.692Z,97672.61
2019-03-16T09:15:50.692Z,97686.23
2019-03-16T09:16:58.814Z,97684.40
2019-03-16T09:18:07.185Z,97683.91
2019-03-16T09:19:15.693Z,97693.17
2019-03-16T09:20:23.825Z,97685.63
2019-03-16T09:21:31.974Z,97687.66
2019-03-16T09:22:40.205Z,97692.53
2019-03-16T09:23:48.405Z,97693.19
2019-03-16T09:24:56.338Z,97702.03
2019-03-16T09:26:04.833Z,97690.09
2019-03-16T09:27:13.288Z,97706.25
2019-03-16T09:28:21.916Z,97705.55
2019-03-16T09:29:30.571Z,97714.05
2019-03-16T09:30:39.432Z,97713.70
2019-03-16T09:31:47.324Z,97697.20
2019-03-16T09:32:55.467Z,97709.06
2019-03-16T09:34:03.563Z,97718.36
2019-03-16T09:35:11.591Z,97697.34
2019-03-16T09:36:19.811Z,97717.70
2019-03-16T09:37:27.913Z,97717.66
2019-03-16T09:38:36.098Z,97725.80
2019-03-16T09:39:44.260Z,97726.02
2019-03-16T09:40:52.341Z,97719.98
2019-03-16T09:42:00.566Z,97709.13
2019-03-16T09:43:09.064Z,97720.41
2019-03-16T09:44:17.022Z,97711.15
2019-03-16T09:45:25.326Z,97719.02
2019-03-16T09:46:33.431Z,97717.36
2019-03-16T09:47:43.580Z,97713.20
2019-03-16T09:48:52.120Z,97728.80
2019-03-16T09:50:00.506Z,97719.16
2019-03-16T09:51:09.066Z,97712.76
2019-03-16T09:52:17.320Z,97725.15
2019-03-16T09:53:25.405Z,97724.35
2019-03-16T09:54:33.380Z,97727.91
2019-03-16T09:55:41.574Z,97735.91
2019-03-16T09:57:00.702Z,97735.80
2019-03-16T09:57:59.789Z,97731.66
2019-03-16T09:59:08.049Z,97724.65
2019-03-16T10:00:17.737Z,97744.22
2019-03-16T10:01:26.053Z,97737.66
2019-03-16T10:02:34.342Z,97749.51
2019-03-16T10:03:42.765Z,97733.55
2019-03-16T10:04:51.054Z,97748.30
2019-03-16T10:05:59.272Z,97744.05
2019-03-16T10:07:06.965Z,97748.12
2019-03-16T10:08:14.997Z,97765.03
2019-03-16T10:09:23.106Z,97754.84
2019-03-16T10:10:31.237Z,97758.70
2019-03-16T10:11:39.556Z,97769.36
2019-03-16T10:12:47.527Z,97770.24
2019-03-16T10:13:55.726Z,97764.02
2019-03-16T10:15:04.993Z,97751.05
2019-03-16T10:16:13.170Z,97752.41
2019-03-16T10:17:21.405Z,97769.39
2019-03-16T10:18:29.441Z,97774.13
2019-03-16T10:19:37.663Z,97754.13
2019-03-16T10:20:45.873Z,97768.33
2019-03-16T10:21:54.046Z,97773.34
2019-03-16T10:23:02.362Z,97753.03
2019-03-16T10:24:10.750Z,97773.99
2019-03-16T10:25:19.056Z,97776.50
2019-03-16T10:26:27.356Z,97791.63
2019-03-16T10:27:35.601Z,97782.10
2019-03-16T10:28:44.186Z,97775.73
2019-03-16T10:29:52.341Z,97792.70
2019-03-16T10:31:00.479Z,97777.30
2019-03-16T10:32:08.754Z,97775.52
2019-03-16T10:33:17.156Z,97783.16
2019-03-16T10:34:25.795Z,97789.71
2019-03-16T10:35:33.830Z,97801.91
2019-03-16T10:36:42.056Z,97798.66
2019-03-16T10:37:50.556Z,97789.95
2019-03-16T10:38:58.780Z,97796.50
2019-03-16T10:40:12.770Z,97793.58
2019-03-16T10:41:21.028Z,97798.66
2019-03-16T10:42:29.116Z,97791.77
2019-03-16T10:43:37.370Z,97795.60
2019-03-16T10:44:45.623Z,97801.52
2019-03-16T10:45:53.689Z,97783.66
2019-03-16T10:47:02.339Z,97800.79
2019-03-16T10:48:10.245Z,97797.20
2019-03-16T10:49:18.442Z,97800.36
2019-03-16T10:50:26.809Z,97801.96
2019-03-16T10:51:34.951Z,97797.30
2019-03-16T10:52:42.953Z,97806.67
2019-03-16T10:53:51.010Z,97799.31
2019-03-16T10:54:59.260Z,97803.53
2019-03-16T10:56:07.380Z,97787.38
2019-03-16T10:57:15.584Z,97811.72
2019-03-16T10:58:23.538Z,97796.22
2019-03-16T10:59:31.880Z,97802.63
2019-03-16T11:00:40.031Z,97807.12
2019-03-16T11:01:48.451Z,97811.31
2019-03-16T11:02:56.973Z,97803.50
2019-03-16T11:04:05.119Z,97807.77
2019-03-16T11:05:13.174Z,97812.02
2019-03-16T11:06:21.289Z,97807.13
2019-03-16T11:07:29.072Z,97801.50
2019-03-16T11:08:37.055Z,97796.81
2019-03-16T11:09:45.262Z,97801.06
2019-03-16T11:10:53.412Z,97790.30
2019-03-16T11:12:01.556Z,97804.83
2019-03-16T11:13:11.038Z,97804.88
2019-03-16T11:14:19.048Z,97796.61
2019-03-16T11:15:27.489Z,97807.60
2019-03-16T11:16:35.558Z,97815.61
2019-03-16T11:17:43.676Z,97818.42
2019-03-16T11:18:51.598Z,97810.77
2019-03-16T11:19:59.633Z,97801.97
2019-03-16T11:21:07.991Z,97807.96
2019-03-16T11:22:16.176Z,97803.16
2019-03-16T11:23:24.444Z,97802.95
2019-03-16T11:24:32.995Z,97818.36
2019-03-16T11:25:41.253Z,97816.09
2019-03-16T11:26:49.605Z,97810.12
2019-03-16T11:27:57.676Z,97792.34
2019-03-16T11:29:09.319Z,97803.31
2019-03-16T11:30:17.757Z,97802.12
2019-03-16T11:31:26.224Z,97792.31
2019-03-16T11:32:34.657Z,97800.15
2019-03-16T11:33:43.133Z,97790.59
2019-03-16T11:34:51.407Z,97801.48
2019-03-16T11:35:59.916Z,97795.96
2019-03-16T11:37:07.962Z,97802.72
2019-03-16T11:38:16.343Z,97801.55
2019-03-16T11:39:24.650Z,97807.41
2019-03-16T11:40:33.236Z,97796.09
2019-03-16T11:41:41.517Z,97803.16
2019-03-16T11:42:50.269Z,97807.20
2019-03-16T11:43:58.331Z,97798.84
2019-03-16T11:45:10.483Z,97809.91
2019-03-16T11:46:18.597Z,97791.98
2019-03-16T11:47:26.566Z,97799.88
2019-03-16T11:48:34.597Z,97791.86
2019-03-16T11:49:42.783Z,97786.14
2019-03-16T11:50:50.891Z,97789.21
2019-03-16T11:51:59.159Z,97799.84
2019-03-16T11:53:07.247Z,97792.97
2019-03-16T11:54:15.509Z,97786.41
2019-03-16T11:55:23.827Z,97792.84
2019-03-16T11:56:31.817Z,97795.72
2019-03-16T11:57:40.233Z,97789.07
2019-03-16T11:58:48.433Z,97795.03
2019-03-16T11:59:56.700Z,97798.17
2019-03-16T12:01:05.132Z,97794.17
2019-03-16T12:02:13.530Z,97781.58
2019-03-16T12:03:21.588Z,97806.58
2019-03-16T12:04:30.232Z,97793.23
2019-03-16T12:05:38.237Z,97765.91
2019-03-16T12:06:46.365Z,97782.34
2019-03-16T12:07:54.545Z,97793.16
2019-03-16T12:09:02.623Z,97801.62
2019-03-16T12:10:15.373Z,97796.01
2019-03-16T12:11:23.957Z,97805.67
2019-03-16T12:12:32.064Z,97799.47
2019-03-16T12:13:40.295Z,97791.34
2019-03-16T12:14:48.836Z,97788.14
2019-03-16T12:15:56.827Z,97782.80
2019-03-16T12:17:05.492Z,97786.09
2019-03-16T12:18:13.611Z,97790.30
2019-03-16T12:19:22.338Z,97790.41
2019-03-16T12:20:30.358Z,97803.89
2019-03-16T12:21:38.348Z,97795.99
2019-03-16T12:22:46.780Z,97803.29
2019-03-16T12:23:55.607Z,97795.11
2019-03-16T12:25:03.863Z,97800.52
2019-03-16T12:26:12.207Z,97775.09
2019-03-16T12:27:20.367Z,97782.41
2019-03-16T12:28:28.604Z,97799.22
2019-03-16T12:29:37.024Z,97783.24
2019-03-16T12:30:45.267Z,97789.38
2019-03-16T12:31:53.701Z,97760.63
2019-03-16T12:33:02.182Z,97787.38
2019-03-16T12:34:10.388Z,97780.88
2019-03-16T12:35:18.391Z,97807.73
2019-03-16T12:36:26.839Z,97791.44
2019-03-16T12:37:34.822Z,97799.41
2019-03-16T12:38:42.860Z,97797.31
2019-03-16T12:39:51.065Z,97806.13
2019-03-16T12:40:59.373Z,97802.80
2019-03-16T12:42:07.572Z,97801.38
2019-03-16T12:44:56.811Z,97806.08
2019-03-16T12:46:04.922Z,97814.19
2019-03-16T12:47:13.367Z,97791.56
2019-03-16T12:48:21.431Z,97816.44
2019-03-16T12:49:29.510Z,97804.28
2019-03-16T12:50:37.829Z,97822.00
2019-03-16T12:51:46.333Z,97817.18
2019-03-16T12:52:55.083Z,97812.47
2019-03-16T12:54:03.006Z,97822.18
2019-03-16T12:55:12.413Z,97832.38
2019-03-16T12:56:20.970Z,97844.94
2019-03-16T12:57:28.964Z,97834.57
2019-03-16T12:58:37.371Z,97836.59
2019-03-16T12:59:47.156Z,97845.72
2019-03-16T13:00:55.913Z,97841.41
2019-03-16T13:02:04.789Z,97852.54
2019-03-16T13:03:12.708Z,97844.31
2019-03-16T13:04:21.128Z,97836.17
2019-03-16T13:05:29.223Z,97846.84
2019-03-16T13:06:37.379Z,97831.85
2019-03-16T13:07:45.475Z,97841.20
2019-03-16T13:08:53.605Z,97839.45
2019-03-16T13:10:02.875Z,97844.25
2019-03-16T13:11:10.889Z,97843.96
2019-03-16T13:12:19.083Z,97836.64
2019-03-16T13:13:27.368Z,97831.59
2019-03-16T13:14:35.342Z,97844.03
2019-03-16T13:15:43.533Z,97832.50
2019-03-16T13:16:51.883Z,97838.84
2019-03-16T13:18:00.431Z,97836.78
2019-03-16T13:19:08.898Z,97836.98
2019-03-16T13:20:18.567Z,97827.30
2019-03-16T13:21:26.779Z,97835.98
2019-03-16T13:22:35.333Z,97840.62
2019-03-16T13:23:44.225Z,97837.70
2019-03-16T13:24:52.518Z,97834.25